Nearby METAR Reports

 

EDLW - Dortmund/Wickede, Germany
Distance from station: OSO 17km
Aktuell: 17/01/2020 17:20
geschlossene Wolkendecke
geschlossene Wolkendecke
 Wind aus SSW
Wind: SSW 19 km/h
Temperatur: 8°C
Wind Chill: 4°C
Taupunkt: 7°C
Luftfeuchte: 93%
Luftdruck: 1014 hPa
Clouds: geschlossene Wolkendecke
Visibility: 10 km
Cloud details: stark bewölkt 518 m
geschlossene Wolkendecke 1067 m
2020/01/17 16:20 EDLW 171620Z 20010KT 9999 BKN017 OVC035 08/07 Q1014
EDDL - Duesseldorf, Germany
Distance from station: SW 52km
Aktuell: 17/01/2020 17:20
leicht bewölkt
leicht bewölkt
 Wind aus SW
Wind: SW 20 km/h
Temperatur: 9°C
Wind Chill: 6°C
Taupunkt: 7°C
Luftfeuchte: 87%
Luftdruck: 1015 hPa
Clouds: leicht bewölkt
Visibility: 10 km
Cloud details: leicht bewölkt 427 m
2020/01/17 16:20 EDDL 171620Z 22011KT 9999 FEW014 09/07 Q1015 NOSIG
 
EDDG - Muenster/Osnabru, Germany
Distance from station: NNO 67km
Aktuell: 17/01/2020 17:20
stark bewölkt
stark bewölkt
 Wind aus S
Wind: S 13 km/h
Temperatur: 8°C
Wind Chill: 6°C
Taupunkt: 7°C
Luftfeuchte: 93%
Luftdruck: 1014 hPa
Clouds: stark bewölkt
Visibility: 10 km
Cloud details: leicht bewölkt 213 m
teilweise bewölkt 274 m
stark bewölkt 366 m
2020/01/17 16:20 EDDG 171620Z 19007KT 160V220 9999 FEW007 SCT009 BKN012 08/07 Q1014 TEMPO BKN009
EDLN - Monchengladbach, Germany
Distance from station: WSW 72km
Aktuell: 17/01/2020 17:20
klar
klar
 Wind aus SW
Wind: SW 17 km/h
Temperatur: 9°C
Wind Chill: 7°C
Taupunkt: 7°C
Luftfeuchte: 87%
Luftdruck: 1015 hPa
Zusammenfassung: klar
Visibility: greater than 10 km
2020/01/17 16:20 EDLN 171620Z 22009KT CAVOK 09/07 Q1015
 
EDDK - Koeln/Bonn, Germany
Distance from station: SSW 79km
Aktuell: 17/01/2020 17:20
sehr leichter Niederschlag, stark bewölkt
sehr leichter Niederschlag, stark bewölkt
 Wind aus SSW
Wind: SSW 13 km/h
Temperatur: 8°C
Wind Chill: 6°C
Taupunkt: 7°C
Luftfeuchte: 93%
Luftdruck: 1016 hPa
Zusammenfassung: sehr leichter Niederschlag
Clouds: stark bewölkt
Visibility: 10 km
Cloud details: leicht bewölkt 335 m
teilweise bewölkt 762 m
stark bewölkt 914 m
2020/01/17 16:20 EDDK 171620Z 20007KT 170V320 9999 -RA FEW011 SCT025 BKN030 08/07 Q1016 NOSIG
EDLP - Paderborn/Lippst, Germany
Distance from station: O 85km
Aktuell: 17/01/2020 17:20
geschlossene Wolkendecke
geschlossene Wolkendecke
 Wind aus SSW
Wind: SSW 20 km/h
Temperatur: 9°C
Wind Chill: 6°C
Taupunkt: 5°C
Luftfeuchte: 76%
Luftdruck: 1014 hPa
Clouds: geschlossene Wolkendecke
Visibility: 10 km
Cloud details: geschlossene Wolkendecke 945 m
2020/01/17 16:20 EDLP 171620Z 21011KT 9999 OVC031 09/05 Q1014
 
EDLV - Niederrhein, Germany
Distance from station: W 86km
Aktuell: 17/01/2020 17:20
klar
klar
 Wind aus SSW
Wind: SSW 15 km/h
Temperatur: 9°C
Wind Chill: 7°C
Taupunkt: 7°C
Luftfeuchte: 87%
Luftdruck: 1014 hPa
Zusammenfassung: klar
Visibility: greater than 10 km
2020/01/17 16:20 EDLV 171620Z 21008KT CAVOK 09/07 Q1014
ETNN - Noervenich (gaf), Germany
Distance from station: SSW 97km
Aktuell: 17/01/2020 17:20
stark bewölkt
stark bewölkt
 Wind aus WSW
Wind: WSW 17 km/h
Temperatur: 9°C
Wind Chill: 7°C
Taupunkt: 6°C
Luftfeuchte: 82%
Luftdruck: 1016 hPa
Clouds: stark bewölkt
Visibility: 10 km
Cloud details: leicht bewölkt 610 m
teilweise bewölkt 1219 m
stark bewölkt 5486 m
2020/01/17 16:20 ETNN 171620Z 24009KT 9999 FEW020 SCT040 BKN180 09/06 Q1016 BLU